createdAt,value
2018-09-26T00:00:22.766Z,0.50
2018-09-26T00:03:05.020Z,0.50
2018-09-26T00:05:33.632Z,0.50
2018-09-26T00:08:02.171Z,0.30
2018-09-26T00:10:30.765Z,0.30
2018-09-26T00:12:59.336Z,0.40
2018-09-26T00:15:27.993Z,0.40
2018-09-26T00:17:56.620Z,0.30
2018-09-26T00:20:25.201Z,0.30
2018-09-26T00:22:53.804Z,0.30
2018-09-26T00:25:22.481Z,0.20
2018-09-26T00:27:51.280Z,0.20
2018-09-26T00:30:19.936Z,0.20
2018-09-26T00:32:48.495Z,0.30
2018-09-26T00:35:17.109Z,0.20
2018-09-26T00:37:45.738Z,0.20
2018-09-26T00:40:14.280Z,0.10
2018-09-26T00:42:43.529Z,0.10
2018-09-26T00:45:12.080Z,0.10
2018-09-26T00:47:41.980Z,0.20
2018-09-26T00:50:10.552Z,0.10
2018-09-26T00:52:39.138Z,0.00
2018-09-26T00:55:08.219Z,0.00
2018-09-26T00:57:36.845Z,0.10
2018-09-26T01:00:05.655Z,0.00
2018-09-26T01:02:34.369Z,-0.10
2018-09-26T01:05:03.265Z,-0.10
2018-09-26T01:07:32.152Z,-0.10
2018-09-26T01:10:00.831Z,-0.20
2018-09-26T01:12:29.409Z,-0.10
2018-09-26T01:14:58.009Z,-0.10
2018-09-26T01:17:26.655Z,-0.10
2018-09-26T01:19:55.292Z,-0.20
2018-09-26T01:22:23.893Z,-0.20
2018-09-26T01:24:53.110Z,-0.10
2018-09-26T01:27:21.789Z,-0.10
2018-09-26T01:29:50.349Z,-0.10
2018-09-26T01:32:19.004Z,-0.20
2018-09-26T01:34:47.716Z,-0.20
2018-09-26T01:37:16.413Z,-0.20
2018-09-26T01:39:45.144Z,-0.20
2018-09-26T01:42:13.813Z,-0.20
2018-09-26T01:44:42.611Z,-0.20
2018-09-26T01:47:11.624Z,-0.30
2018-09-26T01:49:40.180Z,-0.30
2018-09-26T01:52:08.805Z,-0.30
2018-09-26T01:54:37.361Z,-0.30
2018-09-26T01:57:05.990Z,-0.30
2018-09-26T01:59:34.571Z,-0.30
2018-09-26T02:02:03.361Z,-0.20
2018-09-26T02:04:31.925Z,-0.20
2018-09-26T02:07:00.494Z,-0.30
2018-09-26T02:09:29.134Z,-0.20
2018-09-26T02:11:57.785Z,-0.20
2018-09-26T02:14:26.321Z,-0.20
2018-09-26T02:16:54.928Z,-0.30
2018-09-26T02:19:23.632Z,-0.40
2018-09-26T02:21:52.200Z,-0.50
2018-09-26T02:24:20.980Z,-0.50
2018-09-26T02:26:49.578Z,-0.50
2018-09-26T02:29:18.451Z,-0.50
2018-09-26T02:31:47.015Z,-0.60
2018-09-26T02:34:15.629Z,-0.60
2018-09-26T02:36:44.350Z,-0.70
2018-09-26T02:39:12.958Z,-0.70
2018-09-26T02:41:41.550Z,-0.70
2018-09-26T02:44:10.263Z,-0.60
2018-09-26T02:46:38.848Z,-0.70
2018-09-26T02:49:07.890Z,-0.70
2018-09-26T02:51:37.943Z,-0.70
2018-09-26T02:54:07.828Z,-0.60
2018-09-26T02:56:36.830Z,-0.50
2018-09-26T02:59:05.575Z,-0.60
2018-09-26T03:01:34.139Z,-0.60
2018-09-26T03:04:03.302Z,-0.60
2018-09-26T03:06:31.890Z,-0.50
2018-09-26T03:09:01.012Z,-0.40
2018-09-26T03:11:29.658Z,-0.50
2018-09-26T03:13:58.241Z,-0.60
2018-09-26T03:16:26.770Z,-0.60
2018-09-26T03:18:55.428Z,-0.60
2018-09-26T03:21:24.055Z,-0.60
2018-09-26T03:23:52.770Z,-0.70
2018-09-26T03:26:21.422Z,-0.70
2018-09-26T03:28:50.109Z,-0.70
2018-09-26T03:31:18.665Z,-0.80
2018-09-26T03:33:47.486Z,-0.80
2018-09-26T03:36:16.181Z,-0.80
2018-09-26T03:38:44.910Z,-0.80
2018-09-26T03:41:13.556Z,-0.80
2018-09-26T03:43:42.103Z,-0.80
2018-09-26T03:46:10.904Z,-0.70
2018-09-26T03:48:39.473Z,-0.80
2018-09-26T03:51:08.052Z,-0.90
2018-09-26T03:53:36.736Z,-0.90
2018-09-26T03:56:05.304Z,-1.00
2018-09-26T03:58:33.842Z,-0.90
2018-09-26T04:01:02.652Z,-0.90
2018-09-26T04:03:31.220Z,-0.90
2018-09-26T04:05:59.822Z,-1.00
2018-09-26T04:08:28.709Z,-1.00
2018-09-26T04:10:57.350Z,-1.00
2018-09-26T04:13:26.413Z,-1.00
2018-09-26T04:15:55.702Z,-1.00
2018-09-26T04:18:26.378Z,-1.10
2018-09-26T04:20:55.854Z,-1.10
2018-09-26T04:23:25.139Z,-1.00
2018-09-26T04:25:53.837Z,-1.00
2018-09-26T04:28:22.478Z,-1.10
2018-09-26T04:30:51.285Z,-1.10
2018-09-26T04:33:20.095Z,-1.20
2018-09-26T04:35:48.503Z,-1.20
2018-09-26T04:38:17.188Z,-1.20
2018-09-26T04:40:45.881Z,-1.20
2018-09-26T04:43:14.604Z,-1.20
2018-09-26T04:45:43.281Z,-1.20
2018-09-26T04:48:12.173Z,-1.30
2018-09-26T04:50:40.982Z,-1.20
2018-09-26T04:53:09.621Z,-1.20
2018-09-26T04:55:38.408Z,-1.30
2018-09-26T04:58:07.222Z,-1.20
2018-09-26T05:00:35.728Z,-1.20
2018-09-26T05:03:04.431Z,-1.20
2018-09-26T05:05:33.058Z,-1.20
2018-09-26T05:08:01.649Z,-1.30
2018-09-26T05:10:30.242Z,-1.30
2018-09-26T05:12:58.992Z,-1.30
2018-09-26T05:15:27.554Z,-1.30
2018-09-26T05:17:56.879Z,-1.30
2018-09-26T05:20:25.422Z,-1.30
2018-09-26T05:22:54.142Z,-1.30
2018-09-26T05:25:22.729Z,-1.30
2018-09-26T05:27:51.270Z,-1.30
2018-09-26T05:30:19.980Z,-1.20
2018-09-26T05:32:48.628Z,-1.30
2018-09-26T05:35:17.334Z,-1.30
2018-09-26T05:37:45.989Z,-1.20
2018-09-26T05:40:14.720Z,-1.10
2018-09-26T05:42:43.341Z,-1.10
2018-09-26T05:45:12.122Z,-1.20
2018-09-26T05:47:40.661Z,-1.10
2018-09-26T05:50:09.673Z,-1.10
2018-09-26T05:52:38.272Z,-1.00
2018-09-26T05:55:07.015Z,-1.00
2018-09-26T05:57:35.849Z,-0.90
2018-09-26T06:00:04.809Z,-0.90
2018-09-26T06:02:33.542Z,-0.90
2018-09-26T06:05:02.150Z,-0.90
2018-09-26T06:07:30.809Z,-0.80
2018-09-26T06:09:59.529Z,-0.70
2018-09-26T06:12:28.212Z,-0.70
2018-09-26T06:14:56.833Z,-0.60
2018-09-26T06:17:25.394Z,-0.50
2018-09-26T06:19:53.945Z,-0.50
2018-09-26T06:22:22.682Z,-0.40
2018-09-26T06:24:51.274Z,-0.20
2018-09-26T06:27:19.964Z,-0.10
2018-09-26T06:29:49.188Z,-0.10
2018-09-26T06:32:17.959Z,0.10
2018-09-26T06:34:46.706Z,0.20
2018-09-26T06:37:15.305Z,0.30
2018-09-26T06:39:44.077Z,0.40
2018-09-26T06:42:12.960Z,0.50
2018-09-26T06:44:41.521Z,0.60
2018-09-26T06:47:10.090Z,0.80
2018-09-26T06:49:38.741Z,0.90
2018-09-26T06:52:07.449Z,1.10
2018-09-26T06:54:36.075Z,1.20
2018-09-26T06:57:04.722Z,1.30
2018-09-26T06:59:33.429Z,1.40
2018-09-26T07:02:02.122Z,1.60
2018-09-26T07:04:30.805Z,1.90
2018-09-26T07:06:59.414Z,2.30
2018-09-26T07:09:27.994Z,2.90
2018-09-26T07:11:56.672Z,3.30
2018-09-26T07:14:25.310Z,3.70
2018-09-26T07:16:54.254Z,4.00
2018-09-26T07:19:25.127Z,4.30
2018-09-26T07:21:53.697Z,4.60
2018-09-26T07:24:22.344Z,4.70
2018-09-26T07:26:51.033Z,5.00
2018-09-26T07:29:19.608Z,5.20
2018-09-26T07:31:48.318Z,5.40
2018-09-26T07:34:17.762Z,5.40
2018-09-26T07:36:47.071Z,5.60
2018-09-26T07:39:15.714Z,5.80
2018-09-26T07:41:44.377Z,6.00
2018-09-26T07:44:13.081Z,6.20
2018-09-26T07:46:41.677Z,6.40
2018-09-26T07:49:10.353Z,6.50
2018-09-26T07:51:39.045Z,6.70
2018-09-26T07:54:07.694Z,7.00
2018-09-26T07:56:36.352Z,7.10
2018-09-26T07:59:05.625Z,7.20
2018-09-26T08:01:34.185Z,7.20
2018-09-26T08:04:02.882Z,7.50
2018-09-26T08:06:31.621Z,7.60
2018-09-26T08:09:01.126Z,7.70
2018-09-26T08:11:29.736Z,7.90
2018-09-26T08:13:58.372Z,8.20
2018-09-26T08:16:27.012Z,8.30
2018-09-26T08:18:55.734Z,8.50
2018-09-26T08:21:24.315Z,8.60
2018-09-26T08:23:53.068Z,9.00
2018-09-26T08:26:21.687Z,9.30
2018-09-26T08:28:50.269Z,9.40
2018-09-26T08:31:19.037Z,9.50
2018-09-26T08:33:47.705Z,9.80
2018-09-26T08:36:16.422Z,10.10
2018-09-26T08:38:45.468Z,10.40
2018-09-26T08:41:14.087Z,10.70
2018-09-26T08:43:42.705Z,11.10
2018-09-26T08:46:11.341Z,11.30
2018-09-26T08:48:39.952Z,11.40
2018-09-26T08:51:08.618Z,11.70
2018-09-26T08:53:37.222Z,12.00
2018-09-26T08:56:05.855Z,11.90
2018-09-26T08:58:34.449Z,12.20
2018-09-26T09:01:03.117Z,12.40
2018-09-26T09:03:31.706Z,12.60
2018-09-26T09:06:00.335Z,12.70
2018-09-26T09:08:28.877Z,12.90
2018-09-26T09:10:57.751Z,13.20
2018-09-26T09:13:26.300Z,13.60
2018-09-26T09:15:54.919Z,13.20
2018-09-26T09:18:23.651Z,13.40
2018-09-26T09:20:52.364Z,13.60
2018-09-26T09:23:21.062Z,13.50
2018-09-26T09:25:49.598Z,13.60
2018-09-26T09:28:18.367Z,14.20
2018-09-26T09:30:47.671Z,14.40
2018-09-26T09:33:16.262Z,14.30
2018-09-26T09:35:44.852Z,14.50
2018-09-26T09:38:13.492Z,14.20
2018-09-26T09:40:42.234Z,14.40
2018-09-26T09:43:10.870Z,14.90
2018-09-26T09:45:39.546Z,15.50
2018-09-26T09:48:08.113Z,15.50
2018-09-26T09:50:36.777Z,15.90
2018-09-26T09:53:06.045Z,16.00
2018-09-26T09:55:34.641Z,16.10
2018-09-26T09:58:03.469Z,16.20
2018-09-26T10:00:37.385Z,15.70
2018-09-26T10:03:06.241Z,16.20
2018-09-26T10:05:34.682Z,15.40
2018-09-26T10:08:03.385Z,15.30
2018-09-26T10:10:31.932Z,15.90
2018-09-26T10:13:00.546Z,16.20
2018-09-26T10:15:29.132Z,16.10
2018-09-26T10:17:57.803Z,16.30
2018-09-26T10:20:26.523Z,16.30
2018-09-26T10:22:55.039Z,16.70
2018-09-26T10:25:23.649Z,16.20
2018-09-26T10:27:52.172Z,16.50
2018-09-26T10:30:21.058Z,16.90
2018-09-26T10:32:49.624Z,17.00
2018-09-26T10:35:18.321Z,17.40
2018-09-26T10:40:15.720Z,17.70
2018-09-26T10:42:44.341Z,18.30
2018-09-26T10:45:13.284Z,18.10
2018-09-26T10:47:41.801Z,18.30
2018-09-26T10:50:11.076Z,18.80
2018-09-26T10:52:39.796Z,18.80
2018-09-26T10:55:08.385Z,18.20
2018-09-26T10:57:37.071Z,18.10
2018-09-26T11:02:33.857Z,18.60
2018-09-26T11:05:02.545Z,19.00
2018-09-26T11:07:31.068Z,18.80
2018-09-26T11:09:59.776Z,18.60
2018-09-26T11:12:28.591Z,19.00
2018-09-26T11:14:57.149Z,19.30
2018-09-26T11:17:25.902Z,19.30
2018-09-26T11:19:54.469Z,19.70
2018-09-26T11:22:23.222Z,19.50
2018-09-26T11:24:51.864Z,20.00
2018-09-26T11:27:21.642Z,20.20
2018-09-26T11:29:50.652Z,20.10
2018-09-26T11:32:19.392Z,19.90
2018-09-26T11:34:47.888Z,19.90
2018-09-26T11:37:16.921Z,19.80
2018-09-26T11:39:45.582Z,19.90
2018-09-26T11:42:14.611Z,19.60
2018-09-26T11:44:43.375Z,19.60
2018-09-26T11:47:12.853Z,19.60
2018-09-26T11:49:41.676Z,19.60
2018-09-26T11:52:10.414Z,19.50
2018-09-26T11:54:38.921Z,19.10
2018-09-26T11:57:07.588Z,19.80
2018-09-26T11:59:36.220Z,20.20
2018-09-26T12:02:04.861Z,20.10
2018-09-26T12:04:33.374Z,20.30
2018-09-26T12:07:02.904Z,20.40
2018-09-26T12:09:31.546Z,20.50
2018-09-26T12:12:00.195Z,20.60
2018-09-26T12:14:28.765Z,20.60
2018-09-26T12:16:57.314Z,20.50
2018-09-26T12:19:26.331Z,20.10
2018-09-26T12:21:56.247Z,19.70
2018-09-26T12:24:24.826Z,20.00
2018-09-26T12:26:53.540Z,20.10
2018-09-26T12:29:22.173Z,20.10
2018-09-26T12:31:50.760Z,20.50
2018-09-26T12:34:19.341Z,21.00
2018-09-26T12:36:47.941Z,21.10
2018-09-26T12:39:16.634Z,21.10
2018-09-26T12:41:45.911Z,21.30
2018-09-26T12:44:14.485Z,21.50
2018-09-26T12:46:43.360Z,21.10
2018-09-26T12:49:11.972Z,21.10
2018-09-26T12:51:40.555Z,20.90
2018-09-26T12:54:09.101Z,20.70
2018-09-26T12:56:38.359Z,21.00
2018-09-26T12:59:07.081Z,21.20
2018-09-26T13:01:36.094Z,21.50
2018-09-26T13:04:04.771Z,21.70
2018-09-26T13:06:33.333Z,21.60
2018-09-26T13:09:01.881Z,21.80
2018-09-26T13:11:30.469Z,22.00
2018-09-26T13:13:59.083Z,21.60
2018-09-26T13:16:28.150Z,21.90
2018-09-26T13:18:56.741Z,21.60
2018-09-26T13:21:25.247Z,21.80
2018-09-26T13:23:53.781Z,22.10
2018-09-26T13:26:23.005Z,22.10
2018-09-26T13:28:51.544Z,22.20
2018-09-26T13:31:19.916Z,22.50
2018-09-26T13:33:48.481Z,22.50
2018-09-26T13:36:17.275Z,22.40
2018-09-26T13:38:46.010Z,22.50
2018-09-26T13:41:14.565Z,22.00
2018-09-26T13:43:44.423Z,22.00
2018-09-26T13:46:12.947Z,22.10
2018-09-26T13:48:42.605Z,22.30
2018-09-26T13:51:11.222Z,22.50
2018-09-26T13:53:39.882Z,22.70
2018-09-26T13:56:09.206Z,22.90
2018-09-26T13:58:37.749Z,22.80
2018-09-26T14:01:06.531Z,22.70
2018-09-26T14:03:35.339Z,22.60
2018-09-26T14:06:04.063Z,22.30
2018-09-26T14:08:32.718Z,22.10
2018-09-26T14:11:01.313Z,22.20
2018-09-26T14:13:29.853Z,22.30
2018-09-26T14:15:58.441Z,22.40
2018-09-26T14:18:27.758Z,22.20
2018-09-26T14:20:56.392Z,22.10
2018-09-26T14:23:25.000Z,22.20
2018-09-26T14:25:53.552Z,21.80
2018-09-26T14:28:22.238Z,21.30
2018-09-26T14:30:50.919Z,21.10
2018-09-26T14:33:19.603Z,21.10
2018-09-26T14:35:48.139Z,21.10
2018-09-26T14:38:16.960Z,21.20
2018-09-26T14:40:45.452Z,21.00
2018-09-26T14:43:14.237Z,21.10
2018-09-26T14:45:42.803Z,20.90
2018-09-26T14:48:11.305Z,20.50
2018-09-26T14:50:39.895Z,20.50
2018-09-26T14:53:08.506Z,20.40
2018-09-26T14:55:37.050Z,20.30
2018-09-26T14:58:05.815Z,20.30
2018-09-26T15:00:34.284Z,20.30
2018-09-26T15:03:03.621Z,20.10
2018-09-26T15:05:32.173Z,20.10
2018-09-26T15:08:01.328Z,20.00
2018-09-26T15:10:30.163Z,19.90
2018-09-26T15:12:58.970Z,19.70
2018-09-26T15:15:27.627Z,19.70
2018-09-26T15:17:56.339Z,19.60
2018-09-26T15:20:25.021Z,19.40
2018-09-26T15:22:53.641Z,19.30
2018-09-26T15:25:22.277Z,19.20
2018-09-26T15:27:50.916Z,19.10
2018-09-26T15:30:19.504Z,19.00
2018-09-26T15:32:48.114Z,18.90
2018-09-26T15:35:16.716Z,18.90
2018-09-26T15:37:45.353Z,18.80
2018-09-26T15:40:14.121Z,18.70
2018-09-26T15:42:42.686Z,18.50
2018-09-26T15:45:11.938Z,18.40
2018-09-26T15:47:40.593Z,18.20
2018-09-26T15:50:10.109Z,18.10
2018-09-26T15:52:38.774Z,18.00
2018-09-26T15:55:07.575Z,18.00
2018-09-26T15:57:36.501Z,17.80
2018-09-26T16:00:05.340Z,17.70
2018-09-26T16:02:33.841Z,17.60
2018-09-26T16:05:02.533Z,17.40
2018-09-26T16:07:31.216Z,17.20
2018-09-26T16:09:59.726Z,17.10
2018-09-26T16:12:28.364Z,17.00
2018-09-26T16:14:57.067Z,17.00
2018-09-26T16:17:25.599Z,16.80
2018-09-26T16:19:54.680Z,16.70
2018-09-26T16:22:23.262Z,16.40
2018-09-26T16:24:51.776Z,16.40
2018-09-26T16:27:20.448Z,16.20
2018-09-26T16:29:49.024Z,16.20
2018-09-26T16:32:18.272Z,16.20
2018-09-26T16:34:46.772Z,16.10
2018-09-26T16:37:15.905Z,15.80
2018-09-26T16:39:44.806Z,15.80
2018-09-26T16:42:13.397Z,15.60
2018-09-26T16:44:42.093Z,15.40
2018-09-26T16:47:11.691Z,15.30
2018-09-26T16:49:40.433Z,15.20
2018-09-26T16:52:09.434Z,15.00
2018-09-26T16:54:37.973Z,14.70
2018-09-26T16:57:07.112Z,14.50
2018-09-26T16:59:35.656Z,14.30
2018-09-26T17:02:04.278Z,14.10
2018-09-26T17:04:32.835Z,14.00
2018-09-26T17:07:01.372Z,13.80
2018-09-26T17:09:29.909Z,13.70
2018-09-26T17:11:58.562Z,13.50
2018-09-26T17:14:27.288Z,13.30
2018-09-26T17:16:55.760Z,13.10
2018-09-26T17:19:24.412Z,12.90
2018-09-26T17:21:53.005Z,12.80
2018-09-26T17:24:21.710Z,12.60
2018-09-26T17:26:50.281Z,12.50
2018-09-26T17:29:18.841Z,12.40
2018-09-26T17:31:47.456Z,12.30
2018-09-26T17:34:16.019Z,12.20
2018-09-26T17:36:44.667Z,12.00
2018-09-26T17:39:13.474Z,11.80
2018-09-26T17:41:42.736Z,11.70
2018-09-26T17:44:11.403Z,11.60
2018-09-26T17:46:39.924Z,11.60
2018-09-26T17:49:08.662Z,11.50
2018-09-26T17:51:37.198Z,11.30
2018-09-26T17:54:06.093Z,11.20
2018-09-26T17:56:34.817Z,11.20
2018-09-26T17:59:03.584Z,11.00
2018-09-26T18:01:32.145Z,10.90
2018-09-26T18:04:00.672Z,10.80
2018-09-26T18:06:29.377Z,10.70
2018-09-26T18:08:57.967Z,10.60
2018-09-26T18:11:26.813Z,10.50
2018-09-26T18:13:55.574Z,10.50
2018-09-26T18:16:24.151Z,10.40
2018-09-26T18:18:52.847Z,10.40
2018-09-26T18:21:21.685Z,10.30
2018-09-26T18:23:50.227Z,10.10
2018-09-26T18:26:18.913Z,10.10
2018-09-26T18:28:47.563Z,10.10
2018-09-26T18:31:16.217Z,10.00
2018-09-26T18:33:45.001Z,9.90
2018-09-26T18:36:13.760Z,9.90
2018-09-26T18:38:42.477Z,9.90
2018-09-26T18:41:11.185Z,9.80
2018-09-26T18:43:39.745Z,9.70
2018-09-26T18:46:08.428Z,9.60
2018-09-26T18:48:37.110Z,9.60
2018-09-26T18:51:05.945Z,9.50
2018-09-26T18:53:34.650Z,9.50
2018-09-26T18:56:03.234Z,9.40
2018-09-26T18:58:31.780Z,9.30
2018-09-26T19:01:00.633Z,9.30
2018-09-26T19:03:29.240Z,9.20
2018-09-26T19:05:58.105Z,9.20
2018-09-26T19:08:26.632Z,9.20
2018-09-26T19:10:55.389Z,9.10
2018-09-26T19:13:23.954Z,9.00
2018-09-26T19:15:53.507Z,9.00
2018-09-26T19:18:22.093Z,8.90
2018-09-26T19:20:50.620Z,8.90
2018-09-26T19:23:19.282Z,8.80
2018-09-26T19:25:48.394Z,8.80
2018-09-26T19:28:17.098Z,8.70
2018-09-26T19:30:45.614Z,8.60
2018-09-26T19:33:14.361Z,8.50
2018-09-26T19:35:43.086Z,8.50
2018-09-26T19:38:11.768Z,8.40
2018-09-26T19:40:40.768Z,8.30
2018-09-26T19:43:09.393Z,8.30
2018-09-26T19:45:37.943Z,8.20
2018-09-26T19:48:07.177Z,8.20
2018-09-26T19:50:35.677Z,8.10
2018-09-26T19:53:04.743Z,8.00
2018-09-26T19:55:33.567Z,7.90
2018-09-26T19:58:02.190Z,7.90
2018-09-26T20:00:30.797Z,7.90
2018-09-26T20:02:59.502Z,7.80
2018-09-26T20:05:28.225Z,7.70
2018-09-26T20:07:56.966Z,7.60
2018-09-26T20:10:25.471Z,7.60
2018-09-26T20:12:54.776Z,7.60
2018-09-26T20:15:24.270Z,7.50
2018-09-26T20:17:52.892Z,7.40
2018-09-26T20:20:21.609Z,7.40
2018-09-26T20:22:50.354Z,7.30
2018-09-26T20:25:18.881Z,7.20
2018-09-26T20:27:47.478Z,7.10
2018-09-26T20:30:16.119Z,7.10
2018-09-26T20:32:44.698Z,7.00
2018-09-26T20:35:13.427Z,6.90
2018-09-26T20:37:42.273Z,6.90
2018-09-26T20:40:10.830Z,6.80
2018-09-26T20:42:40.006Z,6.90
2018-09-26T20:45:08.656Z,6.80
2018-09-26T20:47:37.164Z,6.80
2018-09-26T20:50:06.092Z,6.70
2018-09-26T20:52:34.605Z,6.70
2018-09-26T20:55:03.209Z,6.60
2018-09-26T20:57:31.894Z,6.50
2018-09-26T21:00:00.431Z,6.50
2018-09-26T21:02:28.949Z,6.40
2018-09-26T21:04:57.478Z,6.30
2018-09-26T21:07:26.133Z,6.30
2018-09-26T21:09:54.821Z,6.20
2018-09-26T21:12:23.446Z,6.10
2018-09-26T21:14:52.054Z,6.10
2018-09-26T21:17:20.638Z,6.00
2018-09-26T21:19:49.342Z,5.90
2018-09-26T21:22:17.923Z,5.90
2018-09-26T21:24:46.502Z,5.80
2018-09-26T21:27:15.063Z,5.80
2018-09-26T21:29:43.625Z,5.80
2018-09-26T21:32:12.954Z,5.80
2018-09-26T21:34:41.463Z,5.80
2018-09-26T21:37:10.912Z,5.80
2018-09-26T21:39:39.514Z,5.80
2018-09-26T21:42:08.161Z,5.70
2018-09-26T21:44:36.689Z,5.70
2018-09-26T21:47:05.189Z,5.70
2018-09-26T21:49:33.719Z,5.60
2018-09-26T21:52:02.241Z,5.50
2018-09-26T21:54:30.776Z,5.50
2018-09-26T21:56:59.316Z,5.40
2018-09-26T21:59:27.928Z,5.40
2018-09-26T22:01:56.882Z,5.30
2018-09-26T22:04:26.510Z,5.30
2018-09-26T22:06:55.527Z,5.20
2018-09-26T22:09:25.493Z,5.20
2018-09-26T22:11:54.920Z,5.20
2018-09-26T22:14:24.473Z,5.20
2018-09-26T22:16:53.256Z,5.10
2018-09-26T22:19:23.350Z,5.10
2018-09-26T22:21:52.681Z,5.10
2018-09-26T22:24:21.535Z,5.10
2018-09-26T22:26:50.484Z,5.00
2018-09-26T22:29:19.913Z,5.00
2018-09-26T22:31:48.889Z,5.00
2018-09-26T22:34:18.293Z,4.90
2018-09-26T22:36:48.581Z,4.90
2018-09-26T22:39:17.533Z,4.90
2018-09-26T22:41:47.342Z,4.80
2018-09-26T22:44:16.226Z,4.80
2018-09-26T22:46:45.620Z,4.70
2018-09-26T22:49:15.037Z,4.70
2018-09-26T22:51:44.501Z,4.70
2018-09-26T22:54:14.121Z,4.60
2018-09-26T22:56:44.168Z,4.60
2018-09-26T22:59:13.057Z,4.50
2018-09-26T23:01:41.841Z,4.50
2018-09-26T23:04:10.569Z,4.50
2018-09-26T23:06:39.617Z,4.50
2018-09-26T23:09:10.634Z,4.40
2018-09-26T23:11:40.672Z,4.40
2018-09-26T23:14:10.517Z,4.40
2018-09-26T23:16:39.406Z,4.30
2018-09-26T23:19:08.902Z,4.30
2018-09-26T23:21:38.656Z,4.30
2018-09-26T23:24:07.724Z,4.30
2018-09-26T23:26:37.208Z,4.30
2018-09-26T23:29:07.185Z,4.20
2018-09-26T23:31:36.013Z,4.20
2018-09-26T23:34:05.027Z,4.10
2018-09-26T23:36:34.471Z,4.10
2018-09-26T23:39:05.669Z,4.10
2018-09-26T23:41:36.650Z,4.00
2018-09-26T23:44:05.719Z,4.10
2018-09-26T23:46:35.272Z,4.10
2018-09-26T23:49:04.563Z,4.00
2018-09-26T23:51:34.920Z,4.00
2018-09-26T23:54:05.644Z,4.00
2018-09-26T23:56:34.683Z,4.00
2018-09-26T23:59:04.188Z,4.00
